Carrboro, North Carolina
Current Conditions -  °F | °C
As of 12:56 PM on Friday 21 Nov 2014 (Local Time) from KIGX Reporting Station
Clear Clear  
Wind Chill: 40°   Ceiling: Unl
Heat Index: 46°   Visibility: 10mi
Dew Point:   Wind: 13mph
Humidity: 22%   Direction: 340°NNW
Pressure: 30.43"   Gusts: 17mph
Location:  35.91°N, 79.08°W
Report Text: KIGX 211756Z AUTO 34011G15KT 10SM CLR 08/M13 A3043 RMK AO2 SLP307 T00781128 10089 21006 50001
Loading
Personal Weather Stations






























Interactive Weather Map New forecast layout! Learn more

10-Day Weather Forecast

Advertisements
Track Severe Weather on mobile